• Join FlightAware (Why Join?)
  • Login
  • US Flag 
04:00PM EDT


 

Airport Tracker/Info


-or-


 

Live Flight TrackerFlight Track Log ✈ N449ND ✈ 07-Mar-2014 ✈ KFPR - KVRB

Flight Track Log - Related Links

Times and Time Zones

All times are in EST time to prevent confusion due to time zone crossing. See the N449ND flight status page for this flight to view local times or setup timezone preferences in your user account.

Time Position Orientation Groundspeed Altitude Reporting Facility
EST Latitude Longitude Course Direction KTS MPH feet Rate Location/Type
04:35PM 27.4972 -80.3992 152° Southeast 101 116 1,300  Level Miami Center
04:36PM 27.4967 -80.4200 268° West 84 97 1,900 600 Climbing Miami Center
04:37PM 27.4942 -80.4389 262° West 70 81 2,500 480 Climbing Miami Center
04:38PM 27.4958 -80.4553 277° West 65 75 2,900 240 Climbing Miami Center
04:39PM 27.4975 -80.3726 152° Southeast  Level Estimated
04:39PM 27.4889 -80.4808 253° West 70 81 3,000  Level Miami Center
04:40PM 27.4975 -80.3726 152° Southeast  Level Estimated
04:40PM 27.4644 -80.4614 145° Southeast 88 101 3,000  Level Miami Center
04:41PM 27.4422 -80.4325 131° Southeast 104 120 3,000  Level Miami Center
04:42PM 27.4239 -80.4061 128° Southeast 117 135 3,000 -60 Level Miami Center
04:43PM 27.4414 -80.3717 60° Northeast 104 120 2,900  Descending Miami Center
04:44PM 27.4528 -80.3322 72° East 111 128 3,000 60 Climbing Miami Center
04:45PM 27.4725 -80.3025 53° Northeast 111 128 3,100  Climbing Miami Center
04:46PM 27.4981 -80.2797 38° Northeast 111 128 3,000 -60 Descending Miami Center
04:47PM 27.5194 -80.2569 43° Northeast 111 128 3,000 -240 Level Miami Center
04:48PM 27.5431 -80.2250 50° Northeast 117 135 2,600 -600 Descending Miami Center
04:49PM 27.5686 -80.2117 25° Northeast 106 122 1,900 -420 Descending Miami Center
04:50PM 27.5828 -80.2283 314° West 72 83 1,800 -60 Descending Miami Center
04:51PM 27.5883 -80.2519 285° West 79 91 1,800 -60 Level Miami Center
04:52PM 27.5983 -80.2733 298° West 79 91 1,700  Descending Miami Center
04:53PM 27.6103 -80.2972 299° West 79 91 1,800  Climbing Miami Center
04:54PM 27.6161 -80.3183 287° West 74 85 1,800 -240 Level Miami Center
04:55PM 27.6239 -80.3375 295° West 69 79 1,400 -420 Descending Miami Center
04:56PM 27.6300 -80.3517 296° West 69 79 900 -420 Descending Miami Center
04:57PM 27.6378 -80.3753 290° West 69 79 500 -180 Descending Miami Center
04:58PM 27.6456 -80.3942 295° West 69 79 600 300 Climbing Miami Center
04:59PM 27.6556 -80.4111 304° West 69 79 1,100 600 Climbing Miami Center
05:00PM 27.6700 -80.4231 324° Northwest 69 79 1,800 480 Climbing Miami Center
05:01PM 27.6861 -80.4400 317° Northwest 69 79 2,100 120 Climbing Miami Center
05:02PM 27.7022 -80.4617 310° West 69 79 2,100  Level Miami Center